Ruthton, Minnesota
Current Conditions -  °F | °C
As of 9:54 PM on Saturday 24 Jan 2015 (Local Time) from KPQN Reporting Station
Drizzle Drizzle  
Wind Chill: 25°   Ceiling: 600
Heat Index: 34°   Visibility: 10mi
Dew Point: 34°   Wind: 12mph
Humidity: 100%   Direction: 40°NE
Pressure: 29.57"   Gusts: NA
Location:  44.18°N, 96.1°W
Report Text: KPQN 250354Z AUTO 04010KT 10SM -DZ OVC006 01/01 A2957 RMK AO2
Loading
Personal Weather Stations






























Interactive Weather Map New forecast layout! Learn more

10-Day Weather Forecast

Advertisements
Track Severe Weather on mobile